sensor_id;sensor_type;location;lat;lon;timestamp;P1;durP1;ratioP1;P2;durP2;ratioP2
22935;SDS011;11633;42.716;23.312;2022-09-09T00:06:48;5.47;;;4.78;;
22935;SDS011;11633;42.716;23.312;2022-09-09T00:09:16;6.28;;;5.25;;
22935;SDS011;11633;42.716;23.312;2022-09-09T00:11:43;5.70;;;5.20;;
22935;SDS011;11633;42.716;23.312;2022-09-09T00:14:18;6.72;;;5.15;;
22935;SDS011;11633;42.716;23.312;2022-09-09T00:16:49;5.57;;;5.03;;
22935;SDS011;11633;42.716;23.312;2022-09-09T00:19:26;6.15;;;5.43;;
22935;SDS011;11633;42.716;23.312;2022-09-09T00:27:24;5.43;;;4.93;;
22935;SDS011;11633;42.716;23.312;2022-09-09T00:32:30;4.95;;;4.53;;
22935;SDS011;11633;42.716;23.312;2022-09-09T00:35:00;5.47;;;4.97;;
22935;SDS011;11633;42.716;23.312;2022-09-09T00:37:27;6.18;;;5.50;;
22935;SDS011;11633;42.716;23.312;2022-09-09T00:39:53;5.55;;;4.93;;
22935;SDS011;11633;42.716;23.312;2022-09-09T00:42:25;5.10;;;4.63;;
22935;SDS011;11633;42.716;23.312;2022-09-09T00:55:43;5.25;;;4.68;;
22935;SDS011;11633;42.716;23.312;2022-09-09T00:58:10;5.35;;;4.85;;
22935;SDS011;11633;42.716;23.312;2022-09-09T01:00:39;5.40;;;4.97;;
22935;SDS011;11633;42.716;23.312;2022-09-09T01:03:19;7.88;;;5.38;;
22935;SDS011;11633;42.716;23.312;2022-09-09T01:11:36;9.07;;;4.80;;
22935;SDS011;11633;42.716;23.312;2022-09-09T01:16:37;5.85;;;5.22;;
22935;SDS011;11633;42.716;23.312;2022-09-09T01:19:03;5.95;;;5.38;;
22935;SDS011;11633;42.716;23.312;2022-09-09T01:24:06;5.88;;;5.28;;
22935;SDS011;11633;42.716;23.312;2022-09-09T01:26:44;7.50;;;5.70;;
22935;SDS011;11633;42.716;23.312;2022-09-09T01:29:11;6.20;;;5.60;;
22935;SDS011;11633;42.716;23.312;2022-09-09T01:31:39;6.97;;;6.28;;
22935;SDS011;11633;42.716;23.312;2022-09-09T01:34:10;6.97;;;5.90;;
22935;SDS011;11633;42.716;23.312;2022-09-09T01:36:47;7.10;;;5.18;;
22935;SDS011;11633;42.716;23.312;2022-09-09T01:39:16;7.63;;;6.07;;
22935;SDS011;11633;42.716;23.312;2022-09-09T01:41:41;6.25;;;5.65;;
22935;SDS011;11633;42.716;23.312;2022-09-09T01:44:06;6.53;;;5.60;;
22935;SDS011;11633;42.716;23.312;2022-09-09T01:46:32;7.25;;;5.95;;
22935;SDS011;11633;42.716;23.312;2022-09-09T01:48:57;7.20;;;6.00;;
22935;SDS011;11633;42.716;23.312;2022-09-09T01:51:24;8.05;;;6.10;;
22935;SDS011;11633;42.716;23.312;2022-09-09T01:53:49;7.65;;;6.85;;
22935;SDS011;11633;42.716;23.312;2022-09-09T02:03:52;8.68;;;7.45;;
22935;SDS011;11633;42.716;23.312;2022-09-09T02:08:47;8.13;;;6.88;;
22935;SDS011;11633;42.716;23.312;2022-09-09T02:11:17;8.05;;;6.20;;
22935;SDS011;11633;42.716;23.312;2022-09-09T02:13:44;8.27;;;7.18;;
22935;SDS011;11633;42.716;23.312;2022-09-09T02:16:23;8.35;;;7.47;;
22935;SDS011;11633;42.716;23.312;2022-09-09T02:21:16;7.20;;;6.47;;
22935;SDS011;11633;42.716;23.312;2022-09-09T02:23:42;9.40;;;6.00;;
22935;SDS011;11633;42.716;23.312;2022-09-09T02:26:08;8.23;;;6.40;;
22935;SDS011;11633;42.716;23.312;2022-09-09T02:28:35;8.25;;;6.88;;
22935;SDS011;11633;42.716;23.312;2022-09-09T02:31:01;7.78;;;5.93;;
22935;SDS011;11633;42.716;23.312;2022-09-09T02:33:28;8.15;;;6.93;;
22935;SDS011;11633;42.716;23.312;2022-09-09T02:35:55;6.97;;;6.00;;
22935;SDS011;11633;42.716;23.312;2022-09-09T02:38:28;7.10;;;6.35;;
22935;SDS011;11633;42.716;23.312;2022-09-09T02:40:54;7.75;;;6.35;;
22935;SDS011;11633;42.716;23.312;2022-09-09T02:43:20;8.30;;;6.03;;
22935;SDS011;11633;42.716;23.312;2022-09-09T02:45:53;7.47;;;6.50;;
22935;SDS011;11633;42.716;23.312;2022-09-09T02:53:47;6.93;;;6.22;;
22935;SDS011;11633;42.716;23.312;2022-09-09T02:56:16;8.40;;;6.85;;
22935;SDS011;11633;42.716;23.312;2022-09-09T02:58:42;7.28;;;6.57;;
22935;SDS011;11633;42.716;23.312;2022-09-09T03:01:07;6.68;;;6.07;;
22935;SDS011;11633;42.716;23.312;2022-09-09T03:03:33;7.30;;;6.43;;
22935;SDS011;11633;42.716;23.312;2022-09-09T03:05:59;7.40;;;6.15;;
22935;SDS011;11633;42.716;23.312;2022-09-09T03:08:24;9.35;;;7.30;;
22935;SDS011;11633;42.716;23.312;2022-09-09T03:10:49;6.88;;;6.20;;
22935;SDS011;11633;42.716;23.312;2022-09-09T03:13:15;8.55;;;6.40;;
22935;SDS011;11633;42.716;23.312;2022-09-09T03:15:40;7.53;;;6.43;;
22935;SDS011;11633;42.716;23.312;2022-09-09T03:18:05;8.00;;;7.20;;
22935;SDS011;11633;42.716;23.312;2022-09-09T03:20:31;7.68;;;6.78;;
22935;SDS011;11633;42.716;23.312;2022-09-09T03:22:57;7.43;;;5.88;;
22935;SDS011;11633;42.716;23.312;2022-09-09T03:25:22;6.97;;;6.28;;
22935;SDS011;11633;42.716;23.312;2022-09-09T03:27:51;7.10;;;6.22;;
22935;SDS011;11633;42.716;23.312;2022-09-09T03:30:20;7.60;;;6.55;;
22935;SDS011;11633;42.716;23.312;2022-09-09T03:32:45;7.68;;;6.90;;
22935;SDS011;11633;42.716;23.312;2022-09-09T03:35:10;8.30;;;7.18;;
22935;SDS011;11633;42.716;23.312;2022-09-09T03:37:35;7.32;;;6.60;;
22935;SDS011;11633;42.716;23.312;2022-09-09T03:40:01;8.98;;;6.45;;
22935;SDS011;11633;42.716;23.312;2022-09-09T03:42:26;6.90;;;6.30;;
22935;SDS011;11633;42.716;23.312;2022-09-09T03:44:52;8.85;;;7.10;;
22935;SDS011;11633;42.716;23.312;2022-09-09T03:47:18;7.88;;;6.78;;
22935;SDS011;11633;42.716;23.312;2022-09-09T03:49:43;7.72;;;6.93;;
22935;SDS011;11633;42.716;23.312;2022-09-09T03:52:09;7.32;;;6.63;;
22935;SDS011;11633;42.716;23.312;2022-09-09T03:54:34;7.68;;;6.88;;
22935;SDS011;11633;42.716;23.312;2022-09-09T03:57:00;7.28;;;6.50;;
22935;SDS011;11633;42.716;23.312;2022-09-09T03:59:25;9.95;;;6.80;;
22935;SDS011;11633;42.716;23.312;2022-09-09T04:01:51;10.57;;;7.50;;
22935;SDS011;11633;42.716;23.312;2022-09-09T04:04:16;10.95;;;7.13;;
22935;SDS011;11633;42.716;23.312;2022-09-09T04:06:42;7.72;;;6.93;;
22935;SDS011;11633;42.716;23.312;2022-09-09T04:09:07;7.45;;;6.68;;
22935;SDS011;11633;42.716;23.312;2022-09-09T04:11:32;9.27;;;7.10;;
22935;SDS011;11633;42.716;23.312;2022-09-09T04:13:58;8.57;;;7.68;;
22935;SDS011;11633;42.716;23.312;2022-09-09T04:16:23;8.13;;;7.32;;
22935;SDS011;11633;42.716;23.312;2022-09-09T04:18:48;9.45;;;7.40;;
22935;SDS011;11633;42.716;23.312;2022-09-09T04:21:14;10.68;;;6.80;;
22935;SDS011;11633;42.716;23.312;2022-09-09T04:23:41;9.25;;;7.30;;
22935;SDS011;11633;42.716;23.312;2022-09-09T04:26:06;8.80;;;7.25;;
22935;SDS011;11633;42.716;23.312;2022-09-09T04:28:33;8.77;;;6.22;;
22935;SDS011;11633;42.716;23.312;2022-09-09T04:31:05;9.00;;;6.70;;
22935;SDS011;11633;42.716;23.312;2022-09-09T04:33:31;6.80;;;6.18;;
22935;SDS011;11633;42.716;23.312;2022-09-09T04:35:56;8.15;;;6.55;;
22935;SDS011;11633;42.716;23.312;2022-09-09T04:38:22;6.82;;;6.05;;
22935;SDS011;11633;42.716;23.312;2022-09-09T04:40:48;9.05;;;6.90;;
22935;SDS011;11633;42.716;23.312;2022-09-09T04:43:13;7.97;;;6.50;;
22935;SDS011;11633;42.716;23.312;2022-09-09T04:45:42;7.10;;;6.00;;
22935;SDS011;11633;42.716;23.312;2022-09-09T04:48:07;6.25;;;5.22;;
22935;SDS011;11633;42.716;23.312;2022-09-09T04:50:34;5.72;;;5.22;;
22935;SDS011;11633;42.716;23.312;2022-09-09T04:53:00;10.35;;;6.45;;
22935;SDS011;11633;42.716;23.312;2022-09-09T04:55:26;6.20;;;5.60;;
22935;SDS011;11633;42.716;23.312;2022-09-09T04:57:51;6.25;;;5.57;;
22935;SDS011;11633;42.716;23.312;2022-09-09T05:00:16;8.30;;;6.40;;
22935;SDS011;11633;42.716;23.312;2022-09-09T05:02:42;6.10;;;5.60;;
22935;SDS011;11633;42.716;23.312;2022-09-09T05:05:07;8.07;;;5.57;;
22935;SDS011;11633;42.716;23.312;2022-09-09T05:07:32;8.43;;;6.20;;
22935;SDS011;11633;42.716;23.312;2022-09-09T05:09:58;5.07;;;4.57;;
22935;SDS011;11633;42.716;23.312;2022-09-09T05:12:23;5.40;;;4.30;;
22935;SDS011;11633;42.716;23.312;2022-09-09T05:14:50;5.72;;;4.47;;
22935;SDS011;11633;42.716;23.312;2022-09-09T05:17:15;5.82;;;4.53;;
22935;SDS011;11633;42.716;23.312;2022-09-09T05:19:41;6.00;;;5.32;;
22935;SDS011;11633;42.716;23.312;2022-09-09T05:22:06;5.18;;;4.68;;
22935;SDS011;11633;42.716;23.312;2022-09-09T05:24:32;7.95;;;5.20;;
22935;SDS011;11633;42.716;23.312;2022-09-09T05:26:58;5.05;;;4.65;;
22935;SDS011;11633;42.716;23.312;2022-09-09T05:29:26;5.65;;;5.10;;
22935;SDS011;11633;42.716;23.312;2022-09-09T05:31:52;6.13;;;5.60;;
22935;SDS011;11633;42.716;23.312;2022-09-09T05:34:17;6.38;;;5.20;;
22935;SDS011;11633;42.716;23.312;2022-09-09T05:36:43;5.07;;;4.57;;
22935;SDS011;11633;42.716;23.312;2022-09-09T05:39:08;8.05;;;5.35;;
22935;SDS011;11633;42.716;23.312;2022-09-09T05:41:33;8.57;;;5.32;;
22935;SDS011;11633;42.716;23.312;2022-09-09T05:44:00;6.90;;;4.75;;
22935;SDS011;11633;42.716;23.312;2022-09-09T05:46:26;5.57;;;5.05;;
22935;SDS011;11633;42.716;23.312;2022-09-09T05:48:51;7.22;;;5.50;;
22935;SDS011;11633;42.716;23.312;2022-09-09T05:51:18;9.25;;;5.75;;
22935;SDS011;11633;42.716;23.312;2022-09-09T05:53:44;6.50;;;5.25;;
22935;SDS011;11633;42.716;23.312;2022-09-09T05:56:11;5.60;;;5.10;;
22935;SDS011;11633;42.716;23.312;2022-09-09T05:59:03;6.05;;;4.72;;
22935;SDS011;11633;42.716;23.312;2022-09-09T06:01:30;5.55;;;5.05;;
22935;SDS011;11633;42.716;23.312;2022-09-09T06:03:56;5.68;;;5.18;;
22935;SDS011;11633;42.716;23.312;2022-09-09T06:06:22;9.10;;;7.53;;
22935;SDS011;11633;42.716;23.312;2022-09-09T06:08:48;6.72;;;5.55;;
22935;SDS011;11633;42.716;23.312;2022-09-09T06:11:19;5.28;;;4.70;;
22935;SDS011;11633;42.716;23.312;2022-09-09T06:13:45;5.78;;;4.95;;
22935;SDS011;11633;42.716;23.312;2022-09-09T06:16:14;6.00;;;4.20;;
22935;SDS011;11633;42.716;23.312;2022-09-09T06:18:39;4.55;;;4.13;;
22935;SDS011;11633;42.716;23.312;2022-09-09T06:21:05;5.07;;;3.83;;
22935;SDS011;11633;42.716;23.312;2022-09-09T06:23:31;6.60;;;5.35;;
22935;SDS011;11633;42.716;23.312;2022-09-09T06:26:02;5.88;;;4.43;;
22935;SDS011;11633;42.716;23.312;2022-09-09T06:28:27;5.95;;;5.07;;
22935;SDS011;11633;42.716;23.312;2022-09-09T06:30:59;4.60;;;4.20;;
22935;SDS011;11633;42.716;23.312;2022-09-09T06:33:24;5.72;;;4.68;;
22935;SDS011;11633;42.716;23.312;2022-09-09T06:35:53;4.45;;;4.05;;
22935;SDS011;11633;42.716;23.312;2022-09-09T06:38:18;5.25;;;4.20;;
22935;SDS011;11633;42.716;23.312;2022-09-09T06:40:50;7.05;;;4.43;;
22935;SDS011;11633;42.716;23.312;2022-09-09T06:43:16;4.88;;;4.30;;
22935;SDS011;11633;42.716;23.312;2022-09-09T06:45:42;6.30;;;5.68;;
22935;SDS011;11633;42.716;23.312;2022-09-09T06:48:07;4.65;;;4.10;;
22935;SDS011;11633;42.716;23.312;2022-09-09T06:50:33;4.43;;;4.03;;
22935;SDS011;11633;42.716;23.312;2022-09-09T06:52:59;5.43;;;3.72;;
22935;SDS011;11633;42.716;23.312;2022-09-09T06:55:24;4.80;;;4.30;;
22935;SDS011;11633;42.716;23.312;2022-09-09T06:57:50;4.15;;;3.63;;
22935;SDS011;11633;42.716;23.312;2022-09-09T07:00:16;5.43;;;4.00;;
22935;SDS011;11633;42.716;23.312;2022-09-09T07:02:43;4.15;;;3.58;;
22935;SDS011;11633;42.716;23.312;2022-09-09T07:05:09;4.25;;;3.28;;
22935;SDS011;11633;42.716;23.312;2022-09-09T07:07:34;4.60;;;3.65;;
22935;SDS011;11633;42.716;23.312;2022-09-09T07:09:59;3.88;;;3.47;;
22935;SDS011;11633;42.716;23.312;2022-09-09T07:12:25;4.00;;;3.67;;
22935;SDS011;11633;42.716;23.312;2022-09-09T07:14:50;4.45;;;3.72;;
22935;SDS011;11633;42.716;23.312;2022-09-09T07:17:15;3.88;;;3.40;;
22935;SDS011;11633;42.716;23.312;2022-09-09T07:19:40;4.30;;;3.20;;
22935;SDS011;11633;42.716;23.312;2022-09-09T07:22:06;3.60;;;3.30;;
22935;SDS011;11633;42.716;23.312;2022-09-09T07:24:31;5.80;;;3.42;;
22935;SDS011;11633;42.716;23.312;2022-09-09T07:26:56;5.18;;;3.88;;
22935;SDS011;11633;42.716;23.312;2022-09-09T07:29:22;3.10;;;2.90;;
22935;SDS011;11633;42.716;23.312;2022-09-09T07:31:47;3.42;;;3.13;;
22935;SDS011;11633;42.716;23.312;2022-09-09T07:34:13;3.90;;;3.60;;
22935;SDS011;11633;42.716;23.312;2022-09-09T07:36:39;3.03;;;2.72;;
22935;SDS011;11633;42.716;23.312;2022-09-09T07:39:05;4.07;;;2.72;;
22935;SDS011;11633;42.716;23.312;2022-09-09T07:41:32;7.85;;;3.88;;
22935;SDS011;11633;42.716;23.312;2022-09-09T07:43:59;2.90;;;2.67;;
22935;SDS011;11633;42.716;23.312;2022-09-09T07:46:25;4.78;;;3.17;;
22935;SDS011;11633;42.716;23.312;2022-09-09T07:48:52;3.20;;;2.83;;
22935;SDS011;11633;42.716;23.312;2022-09-09T07:51:39;3.67;;;3.33;;
22935;SDS011;11633;42.716;23.312;2022-09-09T07:54:05;2.95;;;2.40;;
22935;SDS011;11633;42.716;23.312;2022-09-09T07:56:30;4.10;;;3.22;;
22935;SDS011;11633;42.716;23.312;2022-09-09T07:58:56;3.25;;;2.72;;
22935;SDS011;11633;42.716;23.312;2022-09-09T08:01:23;3.20;;;2.90;;
22935;SDS011;11633;42.716;23.312;2022-09-09T08:03:55;4.53;;;2.95;;
22935;SDS011;11633;42.716;23.312;2022-09-09T08:06:21;3.42;;;3.13;;
22935;SDS011;11633;42.716;23.312;2022-09-09T08:08:49;4.90;;;3.15;;
22935;SDS011;11633;42.716;23.312;2022-09-09T08:11:15;3.83;;;3.20;;
22935;SDS011;11633;42.716;23.312;2022-09-09T08:13:41;2.97;;;2.67;;
22935;SDS011;11633;42.716;23.312;2022-09-09T08:16:14;3.08;;;2.83;;
22935;SDS011;11633;42.716;23.312;2022-09-09T08:18:39;3.15;;;2.83;;
22935;SDS011;11633;42.716;23.312;2022-09-09T08:21:07;3.03;;;2.72;;
22935;SDS011;11633;42.716;23.312;2022-09-09T08:23:33;2.45;;;2.25;;
22935;SDS011;11633;42.716;23.312;2022-09-09T08:26:06;3.20;;;2.80;;
22935;SDS011;11633;42.716;23.312;2022-09-09T08:28:31;4.50;;;3.30;;
22935;SDS011;11633;42.716;23.312;2022-09-09T08:31:04;3.40;;;3.10;;
22935;SDS011;11633;42.716;23.312;2022-09-09T08:33:29;3.25;;;2.78;;
22935;SDS011;11633;42.716;23.312;2022-09-09T08:35:54;4.63;;;3.15;;
22935;SDS011;11633;42.716;23.312;2022-09-09T08:38:19;3.30;;;3.00;;
22935;SDS011;11633;42.716;23.312;2022-09-09T08:40:46;3.85;;;3.55;;
22935;SDS011;11633;42.716;23.312;2022-09-09T08:43:14;3.50;;;3.20;;
22935;SDS011;11633;42.716;23.312;2022-09-09T08:48:29;3.90;;;3.50;;
22935;SDS011;11633;42.716;23.312;2022-09-09T08:50:57;3.40;;;2.92;;
22935;SDS011;11633;42.716;23.312;2022-09-09T08:53:27;3.67;;;3.17;;
22935;SDS011;11633;42.716;23.312;2022-09-09T08:55:58;6.68;;;3.40;;
22935;SDS011;11633;42.716;23.312;2022-09-09T08:58:25;3.55;;;3.08;;
22935;SDS011;11633;42.716;23.312;2022-09-09T09:05:47;3.90;;;2.95;;
22935;SDS011;11633;42.716;23.312;2022-09-09T09:08:32;3.67;;;3.38;;
22935;SDS011;11633;42.716;23.312;2022-09-09T09:11:02;4.43;;;3.97;;
22935;SDS011;11633;42.716;23.312;2022-09-09T09:15:58;3.80;;;3.40;;
22935;SDS011;11633;42.716;23.312;2022-09-09T09:18:25;3.72;;;3.33;;
22935;SDS011;11633;42.716;23.312;2022-09-09T09:23:39;4.13;;;3.40;;
22935;SDS011;11633;42.716;23.312;2022-09-09T09:26:07;3.97;;;3.50;;
22935;SDS011;11633;42.716;23.312;2022-09-09T09:28:34;4.70;;;3.70;;
22935;SDS011;11633;42.716;23.312;2022-09-09T09:31:05;3.90;;;3.60;;
22935;SDS011;11633;42.716;23.312;2022-09-09T09:35:56;4.30;;;3.35;;
22935;SDS011;11633;42.716;23.312;2022-09-09T09:38:25;5.65;;;3.72;;
22935;SDS011;11633;42.716;23.312;2022-09-09T09:40:53;5.13;;;3.58;;
22935;SDS011;11633;42.716;23.312;2022-09-09T09:43:29;3.75;;;3.15;;
22935;SDS011;11633;42.716;23.312;2022-09-09T09:45:55;4.18;;;3.78;;
22935;SDS011;11633;42.716;23.312;2022-09-09T09:48:23;4.20;;;3.67;;
22935;SDS011;11633;42.716;23.312;2022-09-09T09:50:49;3.92;;;3.42;;
22935;SDS011;11633;42.716;23.312;2022-09-09T09:53:24;4.70;;;3.85;;
22935;SDS011;11633;42.716;23.312;2022-09-09T09:55:52;4.70;;;4.30;;
22935;SDS011;11633;42.716;23.312;2022-09-09T09:58:18;3.83;;;3.53;;
22935;SDS011;11633;42.716;23.312;2022-09-09T10:00:50;4.72;;;3.80;;
22935;SDS011;11633;42.716;23.312;2022-09-09T10:03:32;3.67;;;3.38;;
22935;SDS011;11633;42.716;23.312;2022-09-09T10:06:02;6.65;;;4.15;;
22935;SDS011;11633;42.716;23.312;2022-09-09T10:08:28;3.95;;;3.58;;
22935;SDS011;11633;42.716;23.312;2022-09-09T10:13:39;4.35;;;3.47;;
22935;SDS011;11633;42.716;23.312;2022-09-09T10:16:12;4.22;;;3.60;;
22935;SDS011;11633;42.716;23.312;2022-09-09T10:24:02;4.05;;;3.15;;
22935;SDS011;11633;42.716;23.312;2022-09-09T10:26:44;4.80;;;3.90;;
22935;SDS011;11633;42.716;23.312;2022-09-09T10:31:50;4.50;;;4.10;;
22935;SDS011;11633;42.716;23.312;2022-09-09T10:36:47;4.75;;;3.97;;
22935;SDS011;11633;42.716;23.312;2022-09-09T10:57:06;5.75;;;4.72;;
22935;SDS011;11633;42.716;23.312;2022-09-09T10:59:40;6.30;;;4.07;;
22935;SDS011;11633;42.716;23.312;2022-09-09T11:07:00;7.40;;;3.90;;
22935;SDS011;11633;42.716;23.312;2022-09-09T11:09:30;5.75;;;3.50;;
22935;SDS011;11633;42.716;23.312;2022-09-09T11:11:57;5.25;;;4.25;;
22935;SDS011;11633;42.716;23.312;2022-09-09T11:14:57;4.50;;;4.10;;
22935;SDS011;11633;42.716;23.312;2022-09-09T11:17:22;5.60;;;3.95;;
22935;SDS011;11633;42.716;23.312;2022-09-09T11:19:48;4.78;;;4.03;;
22935;SDS011;11633;42.716;23.312;2022-09-09T11:22:25;4.57;;;4.10;;
22935;SDS011;11633;42.716;23.312;2022-09-09T11:25:40;4.40;;;4.00;;
22935;SDS011;11633;42.716;23.312;2022-09-09T11:27:44;6.30;;;4.00;;
22935;SDS011;11633;42.716;23.312;2022-09-09T11:30:18;8.93;;;3.85;;
22935;SDS011;11633;42.716;23.312;2022-09-09T11:42:46;4.53;;;3.83;;
22935;SDS011;11633;42.716;23.312;2022-09-09T11:45:22;4.50;;;4.07;;
22935;SDS011;11633;42.716;23.312;2022-09-09T11:47:52;6.57;;;4.15;;
22935;SDS011;11633;42.716;23.312;2022-09-09T11:52:44;4.63;;;4.13;;
22935;SDS011;11633;42.716;23.312;2022-09-09T11:55:26;3.95;;;3.65;;
22935;SDS011;11633;42.716;23.312;2022-09-09T11:58:01;5.00;;;4.50;;
22935;SDS011;11633;42.716;23.312;2022-09-09T12:00:29;5.55;;;4.45;;
22935;SDS011;11633;42.716;23.312;2022-09-09T12:02:56;5.13;;;4.65;;
22935;SDS011;11633;42.716;23.312;2022-09-09T12:05:21;6.35;;;4.93;;
22935;SDS011;11633;42.716;23.312;2022-09-09T12:07:51;4.85;;;4.45;;
22935;SDS011;11633;42.716;23.312;2022-09-09T12:12:44;4.50;;;4.10;;
22935;SDS011;11633;42.716;23.312;2022-09-09T12:17:41;6.60;;;4.80;;
22935;SDS011;11633;42.716;23.312;2022-09-09T12:28:11;4.70;;;4.25;;
22935;SDS011;11633;42.716;23.312;2022-09-09T12:33:12;4.80;;;4.35;;
22935;SDS011;11633;42.716;23.312;2022-09-09T12:35:38;4.35;;;3.92;;
22935;SDS011;11633;42.716;23.312;2022-09-09T12:38:04;6.47;;;4.00;;
22935;SDS011;11633;42.716;23.312;2022-09-09T12:40:33;4.68;;;4.20;;
22935;SDS011;11633;42.716;23.312;2022-09-09T12:43:00;5.55;;;4.65;;
22935;SDS011;11633;42.716;23.312;2022-09-09T12:45:26;5.22;;;4.53;;
22935;SDS011;11633;42.716;23.312;2022-09-09T12:50:19;5.00;;;4.47;;
22935;SDS011;11633;42.716;23.312;2022-09-09T12:52:46;5.35;;;4.50;;
22935;SDS011;11633;42.716;23.312;2022-09-09T12:55:15;5.22;;;4.72;;
22935;SDS011;11633;42.716;23.312;2022-09-09T12:57:41;5.13;;;4.70;;
22935;SDS011;11633;42.716;23.312;2022-09-09T13:00:13;6.00;;;4.57;;
22935;SDS011;11633;42.716;23.312;2022-09-09T13:02:46;5.15;;;4.55;;
22935;SDS011;11633;42.716;23.312;2022-09-09T13:05:15;5.55;;;4.47;;
22935;SDS011;11633;42.716;23.312;2022-09-09T13:07:41;9.95;;;5.47;;
22935;SDS011;11633;42.716;23.312;2022-09-09T13:10:10;6.57;;;5.95;;
22935;SDS011;11633;42.716;23.312;2022-09-09T13:12:35;6.85;;;4.75;;
22935;SDS011;11633;42.716;23.312;2022-09-09T13:15:01;5.53;;;5.03;;
22935;SDS011;11633;42.716;23.312;2022-09-09T13:17:27;5.38;;;4.22;;
22935;SDS011;11633;42.716;23.312;2022-09-09T13:19:55;4.40;;;3.42;;
22935;SDS011;11633;42.716;23.312;2022-09-09T13:22:34;5.93;;;3.67;;
22935;SDS011;11633;42.716;23.312;2022-09-09T13:25:01;3.42;;;3.13;;
22935;SDS011;11633;42.716;23.312;2022-09-09T13:28:02;4.45;;;3.90;;
22935;SDS011;11633;42.716;23.312;2022-09-09T13:30:27;6.65;;;3.72;;
22935;SDS011;11633;42.716;23.312;2022-09-09T13:35:47;5.00;;;3.88;;
22935;SDS011;11633;42.716;23.312;2022-09-09T13:38:14;3.42;;;3.13;;
22935;SDS011;11633;42.716;23.312;2022-09-09T13:40:40;4.15;;;3.75;;
22935;SDS011;11633;42.716;23.312;2022-09-09T13:43:05;5.85;;;3.65;;
22935;SDS011;11633;42.716;23.312;2022-09-09T13:45:40;6.70;;;3.47;;
22935;SDS011;11633;42.716;23.312;2022-09-09T13:48:09;5.30;;;3.30;;
22935;SDS011;11633;42.716;23.312;2022-09-09T13:50:34;3.58;;;3.20;;
22935;SDS011;11633;42.716;23.312;2022-09-09T13:53:00;3.90;;;3.35;;
22935;SDS011;11633;42.716;23.312;2022-09-09T13:55:26;4.13;;;3.70;;
22935;SDS011;11633;42.716;23.312;2022-09-09T14:00:20;3.00;;;2.80;;
22935;SDS011;11633;42.716;23.312;2022-09-09T14:02:46;4.07;;;3.40;;
22935;SDS011;11633;42.716;23.312;2022-09-09T14:05:12;5.18;;;3.22;;
22935;SDS011;11633;42.716;23.312;2022-09-09T14:07:37;5.88;;;3.53;;
22935;SDS011;11633;42.716;23.312;2022-09-09T14:10:03;6.38;;;3.80;;
22935;SDS011;11633;42.716;23.312;2022-09-09T14:12:28;4.10;;;3.70;;
22935;SDS011;11633;42.716;23.312;2022-09-09T14:14:54;6.83;;;3.30;;
22935;SDS011;11633;42.716;23.312;2022-09-09T14:17:19;5.25;;;3.53;;
22935;SDS011;11633;42.716;23.312;2022-09-09T14:19:44;6.60;;;3.47;;
22935;SDS011;11633;42.716;23.312;2022-09-09T14:22:10;5.90;;;3.70;;
22935;SDS011;11633;42.716;23.312;2022-09-09T14:24:36;4.23;;;3.00;;
22935;SDS011;11633;42.716;23.312;2022-09-09T14:27:01;6.68;;;3.50;;
22935;SDS011;11633;42.716;23.312;2022-09-09T14:29:26;5.43;;;3.58;;
22935;SDS011;11633;42.716;23.312;2022-09-09T14:31:52;6.38;;;4.60;;
22935;SDS011;11633;42.716;23.312;2022-09-09T14:34:17;7.95;;;4.63;;
22935;SDS011;11633;42.716;23.312;2022-09-09T14:36:43;6.18;;;5.07;;
22935;SDS011;11633;42.716;23.312;2022-09-09T14:39:10;5.35;;;3.95;;
22935;SDS011;11633;42.716;23.312;2022-09-09T14:41:36;5.47;;;3.80;;
22935;SDS011;11633;42.716;23.312;2022-09-09T14:44:01;5.28;;;4.35;;
22935;SDS011;11633;42.716;23.312;2022-09-09T14:46:26;4.25;;;3.85;;
22935;SDS011;11633;42.716;23.312;2022-09-09T14:48:52;5.07;;;4.18;;
22935;SDS011;11633;42.716;23.312;2022-09-09T14:51:19;4.97;;;3.90;;
22935;SDS011;11633;42.716;23.312;2022-09-09T14:53:44;6.15;;;3.33;;
22935;SDS011;11633;42.716;23.312;2022-09-09T14:56:11;5.45;;;3.60;;
22935;SDS011;11633;42.716;23.312;2022-09-09T14:58:37;4.72;;;3.42;;
22935;SDS011;11633;42.716;23.312;2022-09-09T15:01:07;3.88;;;3.50;;
22935;SDS011;11633;42.716;23.312;2022-09-09T15:03:32;4.22;;;3.60;;
22935;SDS011;11633;42.716;23.312;2022-09-09T15:05:58;6.70;;;3.50;;
22935;SDS011;11633;42.716;23.312;2022-09-09T15:08:23;4.22;;;3.28;;
22935;SDS011;11633;42.716;23.312;2022-09-09T15:10:49;6.82;;;3.78;;
22935;SDS011;11633;42.716;23.312;2022-09-09T15:13:15;3.55;;;3.25;;
22935;SDS011;11633;42.716;23.312;2022-09-09T15:15:42;4.57;;;3.72;;
22935;SDS011;11633;42.716;23.312;2022-09-09T15:18:08;3.85;;;3.40;;
22935;SDS011;11633;42.716;23.312;2022-09-09T15:20:35;6.97;;;3.08;;
22935;SDS011;11633;42.716;23.312;2022-09-09T15:23:05;7.18;;;4.05;;
22935;SDS011;11633;42.716;23.312;2022-09-09T15:25:30;5.22;;;3.95;;
22935;SDS011;11633;42.716;23.312;2022-09-09T15:27:56;6.55;;;4.18;;
22935;SDS011;11633;42.716;23.312;2022-09-09T15:30:21;6.47;;;3.60;;
22935;SDS011;11633;42.716;23.312;2022-09-09T15:32:46;4.65;;;4.10;;
22935;SDS011;11633;42.716;23.312;2022-09-09T15:35:12;5.25;;;3.90;;
22935;SDS011;11633;42.716;23.312;2022-09-09T15:37:37;4.10;;;3.67;;
22935;SDS011;11633;42.716;23.312;2022-09-09T15:40:02;5.78;;;4.15;;
22935;SDS011;11633;42.716;23.312;2022-09-09T15:42:27;4.50;;;4.10;;
22935;SDS011;11633;42.716;23.312;2022-09-09T15:44:55;4.50;;;4.10;;
22935;SDS011;11633;42.716;23.312;2022-09-09T15:47:20;4.32;;;3.80;;
22935;SDS011;11633;42.716;23.312;2022-09-09T15:49:45;5.40;;;3.75;;
22935;SDS011;11633;42.716;23.312;2022-09-09T15:52:11;6.45;;;4.40;;
22935;SDS011;11633;42.716;23.312;2022-09-09T15:54:36;5.38;;;4.00;;
22935;SDS011;11633;42.716;23.312;2022-09-09T15:57:04;6.45;;;3.60;;
22935;SDS011;11633;42.716;23.312;2022-09-09T15:59:30;7.82;;;4.25;;
22935;SDS011;11633;42.716;23.312;2022-09-09T16:01:56;8.95;;;4.15;;
22935;SDS011;11633;42.716;23.312;2022-09-09T16:04:22;5.72;;;4.47;;
22935;SDS011;11633;42.716;23.312;2022-09-09T16:06:52;5.40;;;3.95;;
22935;SDS011;11633;42.716;23.312;2022-09-09T16:09:17;4.47;;;4.07;;
22935;SDS011;11633;42.716;23.312;2022-09-09T16:11:43;7.88;;;3.97;;
22935;SDS011;11633;42.716;23.312;2022-09-09T16:14:08;4.80;;;3.92;;
22935;SDS011;11633;42.716;23.312;2022-09-09T16:16:33;4.60;;;3.83;;
22935;SDS011;11633;42.716;23.312;2022-09-09T16:19:00;6.23;;;4.10;;
22935;SDS011;11633;42.716;23.312;2022-09-09T16:21:28;4.65;;;4.07;;
22935;SDS011;11633;42.716;23.312;2022-09-09T16:23:54;5.13;;;3.78;;
22935;SDS011;11633;42.716;23.312;2022-09-09T16:26:19;5.30;;;3.75;;
22935;SDS011;11633;42.716;23.312;2022-09-09T16:28:45;6.47;;;3.92;;
22935;SDS011;11633;42.716;23.312;2022-09-09T16:31:12;4.05;;;3.60;;
22935;SDS011;11633;42.716;23.312;2022-09-09T16:33:39;4.18;;;3.38;;
22935;SDS011;11633;42.716;23.312;2022-09-09T16:36:05;4.80;;;4.35;;
22935;SDS011;11633;42.716;23.312;2022-09-09T16:38:30;5.00;;;4.13;;
22935;SDS011;11633;42.716;23.312;2022-09-09T16:40:59;4.88;;;4.35;;
22935;SDS011;11633;42.716;23.312;2022-09-09T16:43:24;5.93;;;4.45;;
22935;SDS011;11633;42.716;23.312;2022-09-09T16:45:49;6.32;;;4.47;;
22935;SDS011;11633;42.716;23.312;2022-09-09T16:48:15;5.85;;;3.90;;
22935;SDS011;11633;42.716;23.312;2022-09-09T16:50:40;5.63;;;3.80;;
22935;SDS011;11633;42.716;23.312;2022-09-09T16:53:05;10.40;;;8.25;;
22935;SDS011;11633;42.716;23.312;2022-09-09T16:55:37;5.72;;;3.60;;